createdAt,value
2019-05-18T00:00:51.604Z,9.3
2019-05-18T00:05:54.045Z,9.4
2019-05-18T00:10:56.423Z,9.5
2019-05-18T00:15:58.895Z,9.6
2019-05-18T00:21:01.340Z,9.7
2019-05-18T00:26:03.807Z,9.7
2019-05-18T00:31:06.346Z,9.7
2019-05-18T00:36:08.756Z,9.7
2019-05-18T00:41:11.162Z,9.6
2019-05-18T00:46:13.660Z,9.4
2019-05-18T00:51:16.090Z,9.4
2019-05-18T00:56:18.545Z,9.3
2019-05-18T01:01:21.123Z,9.3
2019-05-18T01:06:23.619Z,9.2
2019-05-18T01:16:28.379Z,9.1
2019-05-18T01:21:30.824Z,9
2019-05-18T01:26:33.377Z,8.9
2019-05-18T01:31:35.756Z,8.7
2019-05-18T01:36:38.221Z,8.6
2019-05-18T01:41:40.799Z,8.5
2019-05-18T01:46:43.165Z,8.4
2019-05-18T01:51:45.598Z,8.4
2019-05-18T01:56:48.033Z,8.3
2019-05-18T02:01:50.569Z,8.3
2019-05-18T02:06:52.944Z,8.3
2019-05-18T02:11:55.413Z,8.4
2019-05-18T02:16:57.881Z,8.3
2019-05-18T02:22:00.329Z,8.3
2019-05-18T02:27:02.837Z,8.3
2019-05-18T02:32:05.290Z,8.5
2019-05-18T02:37:07.749Z,8.6
2019-05-18T02:42:10.227Z,8.8
2019-05-18T02:47:12.641Z,9
2019-05-18T02:52:15.098Z,9.2
2019-05-18T02:57:17.516Z,9.3
2019-05-18T03:02:20.004Z,9.4
2019-05-18T03:07:22.452Z,9.5
2019-05-18T03:12:24.909Z,9.5
2019-05-18T03:17:27.359Z,9.6
2019-05-18T03:22:29.885Z,9.6
2019-05-18T03:27:32.288Z,9.7
2019-05-18T03:32:34.751Z,9.8
2019-05-18T03:37:37.298Z,9.8
2019-05-18T03:42:39.690Z,9.8
2019-05-18T03:47:42.100Z,9.8
2019-05-18T03:52:44.596Z,9.8
2019-05-18T03:57:47.041Z,9.8
2019-05-18T04:02:49.496Z,9.8
2019-05-18T04:07:51.935Z,9.8
2019-05-18T04:12:54.491Z,9.8
2019-05-18T04:17:56.860Z,9.9
2019-05-18T04:22:59.323Z,10
2019-05-18T04:28:01.750Z,9.9
2019-05-18T04:33:04.240Z,9.9
2019-05-18T04:38:06.926Z,9.9
2019-05-18T04:43:09.133Z,9.9
2019-05-18T04:48:11.609Z,9.9
2019-05-18T04:53:14.095Z,10
2019-05-18T04:58:16.511Z,10.3
2019-05-18T05:03:19.012Z,10.3
2019-05-18T05:08:21.455Z,10.2
2019-05-18T05:13:23.886Z,10.2
2019-05-18T05:18:26.361Z,10.1
2019-05-18T05:23:28.797Z,10.1
2019-05-18T05:28:31.247Z,10.2
2019-05-18T05:33:33.793Z,10.2
2019-05-18T05:38:36.160Z,10.3
2019-05-18T05:43:38.641Z,10.4
2019-05-18T05:48:41.093Z,10.5
2019-05-18T05:53:43.548Z,10.6
2019-05-18T05:58:45.992Z,10.7
2019-05-18T06:03:48.474Z,10.7
2019-05-18T06:08:50.908Z,10.8
2019-05-18T06:13:53.400Z,10.9
2019-05-18T06:18:55.827Z,11.1
2019-05-18T06:23:58.286Z,11.8
2019-05-18T06:29:00.778Z,13.9
2019-05-18T06:34:03.228Z,16.2
2019-05-18T06:39:05.663Z,17.8
2019-05-18T06:44:08.146Z,18.7
2019-05-18T06:49:10.659Z,19.7
2019-05-18T06:54:13.085Z,20.5
2019-05-18T06:59:16.371Z,20.6
2019-05-18T07:04:17.954Z,21.3
2019-05-18T07:09:20.405Z,21.3
2019-05-18T07:14:25.481Z,21
2019-05-18T07:19:25.344Z,21.3
2019-05-18T07:24:27.786Z,22.1
2019-05-18T07:29:30.242Z,24.2
2019-05-18T07:34:32.717Z,25.9
2019-05-18T07:39:36.131Z,26.4
2019-05-18T07:44:37.676Z,27.5
2019-05-18T07:49:40.120Z,28
2019-05-18T07:54:42.625Z,27.4
2019-05-18T07:59:45.018Z,26.9
2019-05-18T08:04:47.478Z,27.2
2019-05-18T08:09:49.974Z,27.8
2019-05-18T08:14:52.392Z,26.2
2019-05-18T08:19:54.862Z,25.7
2019-05-18T08:24:57.368Z,26.1
2019-05-18T08:29:59.753Z,26.2
2019-05-18T08:35:02.304Z,26.2
2019-05-18T08:40:04.697Z,26.8
2019-05-18T08:45:07.154Z,27.1
2019-05-18T08:50:09.630Z,27.3
2019-05-18T08:55:12.103Z,27.5
2019-05-18T09:00:14.528Z,27.8
2019-05-18T09:05:16.980Z,28.4
2019-05-18T09:10:19.429Z,28.8
2019-05-18T09:15:21.896Z,30.1
2019-05-18T09:20:24.344Z,30.8
2019-05-18T09:25:26.837Z,30.7
2019-05-18T09:30:29.315Z,30.5
2019-05-18T09:35:31.861Z,30.5
2019-05-18T09:40:34.179Z,30.1
2019-05-18T09:45:36.670Z,29.9
2019-05-18T09:50:39.103Z,30.7
2019-05-18T09:55:41.575Z,31.3
2019-05-18T10:00:44.029Z,30.9
2019-05-18T10:05:46.484Z,29.9
2019-05-18T10:10:48.960Z,30.1
2019-05-18T10:15:51.432Z,30.4
2019-05-18T10:20:53.853Z,29.1
2019-05-18T10:25:56.299Z,28.5
2019-05-18T10:30:58.793Z,28.1
2019-05-18T10:36:01.251Z,28.3
2019-05-18T10:41:03.747Z,28.4
2019-05-18T10:46:06.138Z,28.3
2019-05-18T10:51:08.633Z,28.8
2019-05-18T10:56:11.047Z,29.6
2019-05-18T11:01:13.526Z,30.5
2019-05-18T11:06:16.036Z,29.9
2019-05-18T11:11:18.449Z,30.1
2019-05-18T11:16:20.894Z,30.7
2019-05-18T11:21:23.635Z,30.2
2019-05-18T11:26:25.841Z,31.4
2019-05-18T11:31:28.275Z,32.2
2019-05-18T11:36:30.874Z,32.3
2019-05-18T11:41:33.216Z,31
2019-05-18T11:46:35.697Z,31.3
2019-05-18T11:51:38.165Z,31.6
2019-05-18T11:56:40.592Z,31.7
2019-05-18T12:01:43.041Z,31.1
2019-05-18T12:06:45.644Z,30.2
2019-05-18T12:11:48.013Z,29.8
2019-05-18T12:16:50.408Z,28.8
2019-05-18T12:21:52.950Z,28.5
2019-05-18T12:26:55.322Z,27.5
2019-05-18T12:31:57.828Z,26.5
2019-05-18T12:37:00.354Z,26.2
2019-05-18T12:42:02.714Z,26.5
2019-05-18T12:47:05.227Z,27.3
2019-05-18T12:52:07.674Z,27.6
2019-05-18T12:57:10.079Z,27.7
2019-05-18T13:02:12.560Z,26.5
2019-05-18T13:07:15.015Z,24.6
2019-05-18T13:17:21.317Z,22
2019-05-18T13:22:22.419Z,21.4
2019-05-18T13:27:38.253Z,21.1
2019-05-18T13:32:27.299Z,21
2019-05-18T13:37:29.817Z,20.9
2019-05-18T13:42:32.290Z,20.9
2019-05-18T13:47:34.692Z,20.9
2019-05-18T13:52:37.183Z,21
2019-05-18T13:57:39.706Z,21
2019-05-18T14:02:42.037Z,21.1
2019-05-18T14:07:44.566Z,21
2019-05-18T14:12:46.965Z,21
2019-05-18T14:17:49.492Z,20.9
2019-05-18T14:22:51.934Z,20.7
2019-05-18T14:27:54.345Z,20.6
2019-05-18T14:32:56.798Z,20.6
2019-05-18T14:37:59.267Z,20.5
2019-05-18T14:43:01.728Z,20.2
2019-05-18T14:48:04.207Z,20.1
2019-05-18T14:53:06.910Z,20
2019-05-18T14:58:09.154Z,19.8
2019-05-18T15:03:11.592Z,19.7
2019-05-18T15:08:14.025Z,19.7
2019-05-18T15:13:16.468Z,19.7
2019-05-18T15:18:18.926Z,19.6
2019-05-18T15:23:21.412Z,19.6
2019-05-18T15:28:23.830Z,19.6
2019-05-18T15:33:26.359Z,19.7
2019-05-18T15:38:28.780Z,19.9
2019-05-18T15:43:31.331Z,20.1
2019-05-18T15:48:33.686Z,20
2019-05-18T15:53:36.147Z,19.9
2019-05-18T15:58:38.798Z,19.9
2019-05-18T16:03:41.038Z,19.9
2019-05-18T16:08:43.556Z,19.8
2019-05-18T16:13:45.949Z,19.8
2019-05-18T16:18:48.435Z,19.8
2019-05-18T16:23:50.888Z,19.7
2019-05-18T16:28:53.410Z,19.8
2019-05-18T16:33:55.833Z,20
2019-05-18T16:38:58.288Z,20
2019-05-18T16:44:00.746Z,20
2019-05-18T16:49:03.235Z,20.1
2019-05-18T16:54:05.641Z,20.1
2019-05-18T16:59:08.089Z,20
2019-05-18T17:04:10.560Z,19.8
2019-05-18T17:09:13.018Z,19.8
2019-05-18T17:14:15.550Z,19.7
2019-05-18T17:19:17.936Z,19.7
2019-05-18T17:24:20.543Z,19.6
2019-05-18T17:29:22.947Z,19.6
2019-05-18T17:34:25.335Z,19.5
2019-05-18T17:39:27.785Z,19.4
2019-05-18T17:44:30.211Z,19.4
2019-05-18T17:49:32.678Z,19.3
2019-05-18T17:54:35.132Z,19.2
2019-05-18T17:59:37.669Z,19.1
2019-05-18T18:04:40.043Z,18.9
2019-05-18T18:09:42.510Z,18.7
2019-05-18T18:14:44.981Z,18.5
2019-05-18T18:19:47.440Z,18.3
2019-05-18T18:24:49.940Z,18.1
2019-05-18T18:29:52.333Z,18
2019-05-18T18:34:54.819Z,17.7
2019-05-18T18:39:57.303Z,17.5
2019-05-18T18:44:59.717Z,17.3
2019-05-18T18:55:04.733Z,17.1
2019-05-18T19:00:07.142Z,16.9
2019-05-18T19:05:09.539Z,16.8
2019-05-18T19:10:13.137Z,16.5
2019-05-18T19:15:14.459Z,16.3
2019-05-18T19:20:16.923Z,16
2019-05-18T19:25:19.453Z,15.7
2019-05-18T19:30:21.829Z,15.4
2019-05-18T19:35:24.282Z,15
2019-05-18T19:40:26.801Z,14.7
2019-05-18T19:45:29.198Z,14.4
2019-05-18T19:50:31.662Z,14.1
2019-05-18T19:55:34.156Z,13.8
2019-05-18T20:00:36.627Z,13.6
2019-05-18T20:05:39.060Z,13.3
2019-05-18T20:10:41.503Z,13.1
2019-05-18T20:15:43.949Z,12.9
2019-05-18T20:20:46.440Z,12.7
2019-05-18T20:25:48.986Z,12.6
2019-05-18T20:30:51.350Z,12.5
2019-05-18T20:35:53.834Z,12.4
2019-05-18T20:40:56.327Z,12.3
2019-05-18T20:45:58.700Z,12.2
2019-05-18T20:51:01.158Z,12.2
2019-05-18T20:56:03.643Z,12.1
2019-05-18T21:01:06.061Z,12.2
2019-05-18T21:06:08.562Z,12.2
2019-05-18T21:11:11.023Z,12.3
2019-05-18T21:16:13.445Z,12.5
2019-05-18T21:21:15.900Z,12.5
2019-05-18T21:26:18.383Z,12.6
2019-05-18T21:31:20.832Z,12.7
2019-05-18T21:36:23.262Z,12.8
2019-05-18T21:41:25.741Z,12.8
2019-05-18T21:46:28.193Z,12.8
2019-05-18T21:51:30.665Z,12.9
2019-05-18T21:56:33.281Z,13
2019-05-18T22:01:35.556Z,13
2019-05-18T22:06:38.010Z,13.1
2019-05-18T22:11:40.528Z,13.1
2019-05-18T22:16:42.918Z,13.1
2019-05-18T22:21:45.404Z,13.2
2019-05-18T22:26:47.859Z,13.2
2019-05-18T22:31:50.300Z,13.2
2019-05-18T22:36:52.816Z,13.2
2019-05-18T22:41:55.271Z,13.2
2019-05-18T22:46:57.684Z,13.1
2019-05-18T22:52:00.134Z,13.1
2019-05-18T22:57:02.602Z,13
2019-05-18T23:02:05.156Z,12.9
2019-05-18T23:07:07.508Z,12.7
2019-05-18T23:12:09.967Z,12.6
2019-05-18T23:17:12.449Z,12.6
2019-05-18T23:22:14.894Z,12.4
2019-05-18T23:27:17.355Z,12.3
2019-05-18T23:32:19.827Z,12.2
2019-05-18T23:37:22.309Z,12.1
2019-05-18T23:42:24.721Z,12.1
2019-05-18T23:47:27.215Z,12.1
2019-05-18T23:52:29.696Z,12.1
2019-05-18T23:57:32.127Z,12.1
